Argyle, Wisconsin
Current Conditions -  °F | °C
As of 6:15 AM on Sunday 23 Nov 2014 (Local Time) from KEFT Reporting Station
Haze Haze  
Wind Chill: 43°   Ceiling: 300
Heat Index: 48°   Visibility: 1.5mi
Dew Point: 46°   Wind: 14mph
Humidity: 93%   Direction: 190°S
Pressure: 29.66"   Gusts: 21mph
Location:  42.7°N, 89.87°W
Report Text: KEFT 231215Z AUTO 19012G18KT 1 1/2SM BR OVC003 09/08 A2966 RMK AO2
Loading
Personal Weather Stations






























Interactive Weather Map New forecast layout! Learn more

10-Day Weather Forecast

Advertisements
Track Severe Weather on mobile